sensor_id;sensor_type;location;lat;lon;timestamp;P1;durP1;ratioP1;P2;durP2;ratioP2
15608;SDS011;28705;45.642;13.758;2022-08-07T00:01:44;1.33;;;1.27;;
15608;SDS011;28705;45.642;13.758;2022-08-07T00:04:11;1.25;;;1.08;;
15608;SDS011;28705;45.642;13.758;2022-08-07T00:06:38;1.50;;;1.40;;
15608;SDS011;28705;45.642;13.758;2022-08-07T00:09:05;1.38;;;1.00;;
15608;SDS011;28705;45.642;13.758;2022-08-07T00:11:32;1.15;;;1.10;;
15608;SDS011;28705;45.642;13.758;2022-08-07T00:13:59;1.08;;;0.88;;
15608;SDS011;28705;45.642;13.758;2022-08-07T00:16:27;1.23;;;1.13;;
15608;SDS011;28705;45.642;13.758;2022-08-07T00:18:54;1.05;;;0.80;;
15608;SDS011;28705;45.642;13.758;2022-08-07T00:21:21;1.00;;;1.00;;
15608;SDS011;28705;45.642;13.758;2022-08-07T00:23:48;1.00;;;1.00;;
15608;SDS011;28705;45.642;13.758;2022-08-07T00:26:16;1.02;;;1.02;;
15608;SDS011;28705;45.642;13.758;2022-08-07T00:28:43;1.60;;;0.90;;
15608;SDS011;28705;45.642;13.758;2022-08-07T00:31:10;1.40;;;1.30;;
15608;SDS011;28705;45.642;13.758;2022-08-07T00:33:38;0.88;;;0.88;;
15608;SDS011;28705;45.642;13.758;2022-08-07T00:36:06;0.98;;;0.88;;
15608;SDS011;28705;45.642;13.758;2022-08-07T00:38:33;1.27;;;1.10;;
15608;SDS011;28705;45.642;13.758;2022-08-07T00:41:02;1.83;;;0.95;;
15608;SDS011;28705;45.642;13.758;2022-08-07T00:43:30;0.80;;;0.80;;
15608;SDS011;28705;45.642;13.758;2022-08-07T00:45:58;1.23;;;1.05;;
15608;SDS011;28705;45.642;13.758;2022-08-07T00:48:25;1.10;;;1.10;;
15608;SDS011;28705;45.642;13.758;2022-08-07T00:50:54;1.00;;;1.00;;
15608;SDS011;28705;45.642;13.758;2022-08-07T00:53:21;0.80;;;0.80;;
15608;SDS011;28705;45.642;13.758;2022-08-07T00:55:48;1.00;;;1.00;;
15608;SDS011;28705;45.642;13.758;2022-08-07T00:58:17;0.75;;;0.75;;
15608;SDS011;28705;45.642;13.758;2022-08-07T01:00:45;0.93;;;0.93;;
15608;SDS011;28705;45.642;13.758;2022-08-07T01:03:12;0.98;;;0.98;;
15608;SDS011;28705;45.642;13.758;2022-08-07T01:05:39;0.85;;;0.85;;
15608;SDS011;28705;45.642;13.758;2022-08-07T01:08:09;2.38;;;0.80;;
15608;SDS011;28705;45.642;13.758;2022-08-07T01:10:36;0.90;;;0.90;;
15608;SDS011;28705;45.642;13.758;2022-08-07T01:13:04;1.48;;;1.38;;
15608;SDS011;28705;45.642;13.758;2022-08-07T01:15:31;0.85;;;0.85;;
15608;SDS011;28705;45.642;13.758;2022-08-07T01:18:00;1.08;;;1.08;;
15608;SDS011;28705;45.642;13.758;2022-08-07T01:20:30;1.20;;;1.20;;
15608;SDS011;28705;45.642;13.758;2022-08-07T01:23:01;1.25;;;1.20;;
15608;SDS011;28705;45.642;13.758;2022-08-07T01:25:29;0.90;;;0.90;;
15608;SDS011;28705;45.642;13.758;2022-08-07T01:27:57;1.55;;;1.35;;
15608;SDS011;28705;45.642;13.758;2022-08-07T01:30:24;1.10;;;1.00;;
15608;SDS011;28705;45.642;13.758;2022-08-07T01:32:52;2.05;;;1.00;;
15608;SDS011;28705;45.642;13.758;2022-08-07T01:35:19;1.77;;;1.00;;
15608;SDS011;28705;45.642;13.758;2022-08-07T01:37:46;0.93;;;0.93;;
15608;SDS011;28705;45.642;13.758;2022-08-07T01:40:16;0.93;;;0.90;;
15608;SDS011;28705;45.642;13.758;2022-08-07T01:42:46;1.00;;;1.00;;
15608;SDS011;28705;45.642;13.758;2022-08-07T01:45:13;1.08;;;0.95;;
15608;SDS011;28705;45.642;13.758;2022-08-07T01:47:41;1.35;;;1.25;;
15608;SDS011;28705;45.642;13.758;2022-08-07T01:50:08;1.10;;;1.10;;
15608;SDS011;28705;45.642;13.758;2022-08-07T01:52:35;1.17;;;1.08;;
15608;SDS011;28705;45.642;13.758;2022-08-07T01:55:06;1.40;;;1.27;;
15608;SDS011;28705;45.642;13.758;2022-08-07T01:57:36;1.27;;;1.08;;
15608;SDS011;28705;45.642;13.758;2022-08-07T02:00:06;1.33;;;1.23;;
15608;SDS011;28705;45.642;13.758;2022-08-07T02:02:37;1.00;;;1.00;;
15608;SDS011;28705;45.642;13.758;2022-08-07T02:05:09;1.20;;;1.10;;
15608;SDS011;28705;45.642;13.758;2022-08-07T02:07:41;1.80;;;1.30;;
15608;SDS011;28705;45.642;13.758;2022-08-07T02:10:11;0.80;;;0.80;;
15608;SDS011;28705;45.642;13.758;2022-08-07T02:12:42;1.30;;;1.20;;
15608;SDS011;28705;45.642;13.758;2022-08-07T02:15:11;1.08;;;1.08;;
15608;SDS011;28705;45.642;13.758;2022-08-07T02:17:41;2.13;;;1.30;;
15608;SDS011;28705;45.642;13.758;2022-08-07T02:20:09;1.15;;;1.10;;
15608;SDS011;28705;45.642;13.758;2022-08-07T02:22:38;1.05;;;1.05;;
15608;SDS011;28705;45.642;13.758;2022-08-07T02:25:07;1.55;;;1.40;;
15608;SDS011;28705;45.642;13.758;2022-08-07T02:27:35;1.33;;;1.17;;
15608;SDS011;28705;45.642;13.758;2022-08-07T02:30:06;1.15;;;1.05;;
15608;SDS011;28705;45.642;13.758;2022-08-07T02:32:34;13.93;;;1.30;;
15608;SDS011;28705;45.642;13.758;2022-08-07T02:35:02;1.20;;;1.10;;
15608;SDS011;28705;45.642;13.758;2022-08-07T02:37:30;1.23;;;1.13;;
15608;SDS011;28705;45.642;13.758;2022-08-07T02:39:59;1.63;;;0.80;;
15608;SDS011;28705;45.642;13.758;2022-08-07T02:42:28;0.90;;;0.90;;
15608;SDS011;28705;45.642;13.758;2022-08-07T02:44:57;1.20;;;0.90;;
15608;SDS011;28705;45.642;13.758;2022-08-07T02:47:27;1.70;;;1.08;;
15608;SDS011;28705;45.642;13.758;2022-08-07T02:49:54;1.40;;;1.30;;
15608;SDS011;28705;45.642;13.758;2022-08-07T02:52:22;2.25;;;1.30;;
15608;SDS011;28705;45.642;13.758;2022-08-07T02:54:57;1.02;;;0.93;;
15608;SDS011;28705;45.642;13.758;2022-08-07T02:57:27;1.00;;;1.00;;
15608;SDS011;28705;45.642;13.758;2022-08-07T02:59:55;1.10;;;1.00;;
15608;SDS011;28705;45.642;13.758;2022-08-07T03:02:24;1.40;;;1.30;;
15608;SDS011;28705;45.642;13.758;2022-08-07T03:04:53;0.93;;;0.93;;
15608;SDS011;28705;45.642;13.758;2022-08-07T03:07:21;0.90;;;0.90;;
15608;SDS011;28705;45.642;13.758;2022-08-07T03:09:48;1.20;;;1.10;;
15608;SDS011;28705;45.642;13.758;2022-08-07T03:12:16;4.40;;;1.65;;
15608;SDS011;28705;45.642;13.758;2022-08-07T03:14:44;0.95;;;0.95;;
15608;SDS011;28705;45.642;13.758;2022-08-07T03:17:11;1.50;;;1.30;;
15608;SDS011;28705;45.642;13.758;2022-08-07T03:19:39;1.25;;;1.15;;
15608;SDS011;28705;45.642;13.758;2022-08-07T03:22:08;1.45;;;1.35;;
15608;SDS011;28705;45.642;13.758;2022-08-07T03:24:35;1.13;;;1.13;;
15608;SDS011;28705;45.642;13.758;2022-08-07T03:27:03;1.20;;;1.10;;
15608;SDS011;28705;45.642;13.758;2022-08-07T03:29:32;1.48;;;1.45;;
15608;SDS011;28705;45.642;13.758;2022-08-07T03:32:02;4.70;;;1.73;;
15608;SDS011;28705;45.642;13.758;2022-08-07T03:34:33;2.53;;;1.48;;
15608;SDS011;28705;45.642;13.758;2022-08-07T03:37:03;3.35;;;1.30;;
15608;SDS011;28705;45.642;13.758;2022-08-07T03:39:32;1.80;;;1.30;;
15608;SDS011;28705;45.642;13.758;2022-08-07T03:42:00;1.90;;;1.40;;
15608;SDS011;28705;45.642;13.758;2022-08-07T03:44:29;1.25;;;1.15;;
15608;SDS011;28705;45.642;13.758;2022-08-07T03:46:58;1.23;;;1.13;;
15608;SDS011;28705;45.642;13.758;2022-08-07T03:49:25;3.03;;;1.25;;
15608;SDS011;28705;45.642;13.758;2022-08-07T03:51:53;2.45;;;1.58;;
15608;SDS011;28705;45.642;13.758;2022-08-07T03:54:21;1.27;;;1.17;;
15608;SDS011;28705;45.642;13.758;2022-08-07T03:56:50;1.40;;;1.30;;
15608;SDS011;28705;45.642;13.758;2022-08-07T03:59:18;1.15;;;1.13;;
15608;SDS011;28705;45.642;13.758;2022-08-07T04:01:47;1.73;;;1.17;;
15608;SDS011;28705;45.642;13.758;2022-08-07T04:04:14;2.50;;;1.23;;
15608;SDS011;28705;45.642;13.758;2022-08-07T04:06:43;1.95;;;1.42;;
15608;SDS011;28705;45.642;13.758;2022-08-07T04:09:11;1.45;;;1.35;;
15608;SDS011;28705;45.642;13.758;2022-08-07T04:11:38;1.13;;;1.13;;
15608;SDS011;28705;45.642;13.758;2022-08-07T04:14:07;1.35;;;1.25;;
15608;SDS011;28705;45.642;13.758;2022-08-07T04:16:35;1.52;;;1.42;;
15608;SDS011;28705;45.642;13.758;2022-08-07T04:19:02;1.10;;;1.10;;
15608;SDS011;28705;45.642;13.758;2022-08-07T04:21:30;1.08;;;1.08;;
15608;SDS011;28705;45.642;13.758;2022-08-07T04:23:57;1.85;;;1.20;;
15608;SDS011;28705;45.642;13.758;2022-08-07T04:26:25;1.30;;;1.20;;
15608;SDS011;28705;45.642;13.758;2022-08-07T04:28:52;1.30;;;1.20;;
15608;SDS011;28705;45.642;13.758;2022-08-07T04:31:23;1.27;;;1.27;;
15608;SDS011;28705;45.642;13.758;2022-08-07T04:33:50;1.27;;;1.17;;
15608;SDS011;28705;45.642;13.758;2022-08-07T04:36:17;1.17;;;1.10;;
15608;SDS011;28705;45.642;13.758;2022-08-07T04:38:44;2.25;;;1.20;;
15608;SDS011;28705;45.642;13.758;2022-08-07T04:41:12;1.48;;;1.38;;
15608;SDS011;28705;45.642;13.758;2022-08-07T04:43:39;2.20;;;1.30;;
15608;SDS011;28705;45.642;13.758;2022-08-07T04:46:09;1.40;;;1.30;;
15608;SDS011;28705;45.642;13.758;2022-08-07T04:48:46;1.73;;;1.63;;
15608;SDS011;28705;45.642;13.758;2022-08-07T04:51:23;2.00;;;1.50;;
15608;SDS011;28705;45.642;13.758;2022-08-07T04:53:55;1.33;;;1.23;;
15608;SDS011;28705;45.642;13.758;2022-08-07T04:56:29;1.40;;;1.30;;
15608;SDS011;28705;45.642;13.758;2022-08-07T04:59:05;1.42;;;1.00;;
15608;SDS011;28705;45.642;13.758;2022-08-07T05:01:38;1.63;;;1.52;;
15608;SDS011;28705;45.642;13.758;2022-08-07T05:04:11;1.02;;;1.00;;
15608;SDS011;28705;45.642;13.758;2022-08-07T05:06:43;1.25;;;1.15;;
15608;SDS011;28705;45.642;13.758;2022-08-07T05:09:23;1.00;;;1.00;;
15608;SDS011;28705;45.642;13.758;2022-08-07T05:11:55;1.30;;;1.20;;
15608;SDS011;28705;45.642;13.758;2022-08-07T05:14:26;1.40;;;1.30;;
15608;SDS011;28705;45.642;13.758;2022-08-07T05:16:58;1.00;;;1.00;;
15608;SDS011;28705;45.642;13.758;2022-08-07T05:19:30;1.52;;;1.42;;
15608;SDS011;28705;45.642;13.758;2022-08-07T05:22:02;3.25;;;1.50;;
15608;SDS011;28705;45.642;13.758;2022-08-07T05:24:33;1.30;;;1.20;;
15608;SDS011;28705;45.642;13.758;2022-08-07T05:27:02;2.22;;;1.42;;
15608;SDS011;28705;45.642;13.758;2022-08-07T05:29:33;2.60;;;1.08;;
15608;SDS011;28705;45.642;13.758;2022-08-07T05:32:03;1.48;;;1.20;;
15608;SDS011;28705;45.642;13.758;2022-08-07T05:34:33;1.50;;;1.40;;
15608;SDS011;28705;45.642;13.758;2022-08-07T05:37:02;0.93;;;0.90;;
15608;SDS011;28705;45.642;13.758;2022-08-07T05:39:31;1.00;;;1.00;;
15608;SDS011;28705;45.642;13.758;2022-08-07T05:42:00;1.35;;;1.20;;
15608;SDS011;28705;45.642;13.758;2022-08-07T05:44:27;1.35;;;1.10;;
15608;SDS011;28705;45.642;13.758;2022-08-07T05:46:56;1.05;;;1.05;;
15608;SDS011;28705;45.642;13.758;2022-08-07T05:49:24;1.00;;;1.00;;
15608;SDS011;28705;45.642;13.758;2022-08-07T05:51:53;1.40;;;1.30;;
15608;SDS011;28705;45.642;13.758;2022-08-07T05:54:20;1.50;;;1.30;;
15608;SDS011;28705;45.642;13.758;2022-08-07T05:56:47;1.67;;;1.30;;
15608;SDS011;28705;45.642;13.758;2022-08-07T05:59:15;1.33;;;1.23;;
15608;SDS011;28705;45.642;13.758;2022-08-07T06:01:44;1.50;;;1.40;;
15608;SDS011;28705;45.642;13.758;2022-08-07T06:04:13;1.40;;;1.30;;
15608;SDS011;28705;45.642;13.758;2022-08-07T06:06:42;1.38;;;1.23;;
15608;SDS011;28705;45.642;13.758;2022-08-07T06:09:10;1.10;;;1.10;;
15608;SDS011;28705;45.642;13.758;2022-08-07T06:11:39;2.88;;;2.00;;
15608;SDS011;28705;45.642;13.758;2022-08-07T06:14:06;1.33;;;1.23;;
15608;SDS011;28705;45.642;13.758;2022-08-07T06:16:33;1.10;;;1.05;;
15608;SDS011;28705;45.642;13.758;2022-08-07T06:19:02;1.60;;;1.50;;
15608;SDS011;28705;45.642;13.758;2022-08-07T06:21:30;1.27;;;1.17;;
15608;SDS011;28705;45.642;13.758;2022-08-07T06:23:58;2.13;;;1.42;;
15608;SDS011;28705;45.642;13.758;2022-08-07T06:26:26;1.13;;;1.13;;
15608;SDS011;28705;45.642;13.758;2022-08-07T06:28:54;2.05;;;1.50;;
15608;SDS011;28705;45.642;13.758;2022-08-07T06:31:23;1.20;;;1.10;;
15608;SDS011;28705;45.642;13.758;2022-08-07T06:33:51;1.45;;;1.35;;
15608;SDS011;28705;45.642;13.758;2022-08-07T06:36:18;1.33;;;1.10;;
15608;SDS011;28705;45.642;13.758;2022-08-07T06:38:45;1.50;;;1.10;;
15608;SDS011;28705;45.642;13.758;2022-08-07T06:41:14;1.40;;;1.30;;
15608;SDS011;28705;45.642;13.758;2022-08-07T06:43:47;1.20;;;1.20;;
15608;SDS011;28705;45.642;13.758;2022-08-07T06:46:15;1.58;;;1.48;;
15608;SDS011;28705;45.642;13.758;2022-08-07T06:48:42;1.52;;;1.42;;
15608;SDS011;28705;45.642;13.758;2022-08-07T06:51:12;1.50;;;1.40;;
15608;SDS011;28705;45.642;13.758;2022-08-07T06:53:42;1.67;;;1.58;;
15608;SDS011;28705;45.642;13.758;2022-08-07T06:56:10;1.40;;;1.30;;
15608;SDS011;28705;45.642;13.758;2022-08-07T06:58:38;1.20;;;1.20;;
15608;SDS011;28705;45.642;13.758;2022-08-07T07:01:08;1.58;;;1.40;;
15608;SDS011;28705;45.642;13.758;2022-08-07T07:03:37;1.50;;;1.40;;
15608;SDS011;28705;45.642;13.758;2022-08-07T07:06:06;1.20;;;1.20;;
15608;SDS011;28705;45.642;13.758;2022-08-07T07:08:34;3.70;;;1.63;;
15608;SDS011;28705;45.642;13.758;2022-08-07T07:11:02;1.55;;;1.45;;
15608;SDS011;28705;45.642;13.758;2022-08-07T07:13:32;1.50;;;1.38;;
15608;SDS011;28705;45.642;13.758;2022-08-07T07:16:03;2.08;;;1.52;;
15608;SDS011;28705;45.642;13.758;2022-08-07T07:18:39;1.60;;;1.50;;
15608;SDS011;28705;45.642;13.758;2022-08-07T07:21:10;1.25;;;1.15;;
15608;SDS011;28705;45.642;13.758;2022-08-07T07:23:40;1.65;;;1.55;;
15608;SDS011;28705;45.642;13.758;2022-08-07T07:26:08;1.48;;;1.38;;
15608;SDS011;28705;45.642;13.758;2022-08-07T07:28:41;1.95;;;1.63;;
15608;SDS011;28705;45.642;13.758;2022-08-07T07:31:14;2.78;;;1.50;;
15608;SDS011;28705;45.642;13.758;2022-08-07T07:33:45;2.55;;;1.50;;
15608;SDS011;28705;45.642;13.758;2022-08-07T07:36:17;1.65;;;1.55;;
15608;SDS011;28705;45.642;13.758;2022-08-07T07:38:45;1.70;;;1.60;;
15608;SDS011;28705;45.642;13.758;2022-08-07T07:41:13;1.77;;;1.40;;
15608;SDS011;28705;45.642;13.758;2022-08-07T07:43:43;1.40;;;1.30;;
15608;SDS011;28705;45.642;13.758;2022-08-07T07:46:13;2.03;;;1.70;;
15608;SDS011;28705;45.642;13.758;2022-08-07T07:48:42;1.95;;;1.70;;
15608;SDS011;28705;45.642;13.758;2022-08-07T07:51:10;2.67;;;1.52;;
15608;SDS011;28705;45.642;13.758;2022-08-07T07:53:40;1.48;;;1.38;;
15608;SDS011;28705;45.642;13.758;2022-08-07T07:56:10;2.47;;;2.05;;
15608;SDS011;28705;45.642;13.758;2022-08-07T07:58:39;1.60;;;1.50;;
15608;SDS011;28705;45.642;13.758;2022-08-07T08:01:08;2.47;;;2.00;;
15608;SDS011;28705;45.642;13.758;2022-08-07T08:03:37;1.67;;;1.58;;
15608;SDS011;28705;45.642;13.758;2022-08-07T08:06:06;2.67;;;1.88;;
15608;SDS011;28705;45.642;13.758;2022-08-07T08:08:34;2.08;;;1.77;;
15608;SDS011;28705;45.642;13.758;2022-08-07T08:11:03;2.45;;;1.60;;
15608;SDS011;28705;45.642;13.758;2022-08-07T08:13:31;2.20;;;2.00;;
15608;SDS011;28705;45.642;13.758;2022-08-07T08:16:01;2.25;;;2.05;;
15608;SDS011;28705;45.642;13.758;2022-08-07T08:18:31;2.00;;;1.90;;
15608;SDS011;28705;45.642;13.758;2022-08-07T08:21:01;2.40;;;2.20;;
15608;SDS011;28705;45.642;13.758;2022-08-07T08:23:30;2.20;;;2.10;;
15608;SDS011;28705;45.642;13.758;2022-08-07T08:26:17;1.80;;;1.70;;
15608;SDS011;28705;45.642;13.758;2022-08-07T08:29:02;2.70;;;2.10;;
15608;SDS011;28705;45.642;13.758;2022-08-07T08:31:30;2.05;;;1.77;;
15608;SDS011;28705;45.642;13.758;2022-08-07T08:34:00;2.97;;;1.77;;
15608;SDS011;28705;45.642;13.758;2022-08-07T08:36:32;2.50;;;2.30;;
15608;SDS011;28705;45.642;13.758;2022-08-07T08:39:01;2.80;;;2.60;;
15608;SDS011;28705;45.642;13.758;2022-08-07T08:41:30;2.38;;;2.28;;
15608;SDS011;28705;45.642;13.758;2022-08-07T08:44:07;3.40;;;1.95;;
15608;SDS011;28705;45.642;13.758;2022-08-07T08:46:41;2.20;;;1.92;;
15608;SDS011;28705;45.642;13.758;2022-08-07T08:49:17;1.77;;;1.67;;
15608;SDS011;28705;45.642;13.758;2022-08-07T08:51:53;3.38;;;2.08;;
15608;SDS011;28705;45.642;13.758;2022-08-07T08:54:24;2.13;;;2.03;;
15608;SDS011;28705;45.642;13.758;2022-08-07T08:56:55;2.15;;;1.92;;
15608;SDS011;28705;45.642;13.758;2022-08-07T08:59:28;2.22;;;2.00;;
15608;SDS011;28705;45.642;13.758;2022-08-07T09:02:04;3.80;;;2.00;;
15608;SDS011;28705;45.642;13.758;2022-08-07T09:04:50;2.25;;;2.05;;
15608;SDS011;28705;45.642;13.758;2022-08-07T09:07:26;2.20;;;2.03;;
15608;SDS011;28705;45.642;13.758;2022-08-07T09:10:05;2.10;;;1.85;;
15608;SDS011;28705;45.642;13.758;2022-08-07T09:12:42;2.40;;;2.20;;
15608;SDS011;28705;45.642;13.758;2022-08-07T09:15:27;3.00;;;2.10;;
15608;SDS011;28705;45.642;13.758;2022-08-07T09:18:05;2.42;;;2.22;;
15608;SDS011;28705;45.642;13.758;2022-08-07T09:20:47;2.47;;;2.22;;
15608;SDS011;28705;45.642;13.758;2022-08-07T09:23:28;2.40;;;2.20;;
15608;SDS011;28705;45.642;13.758;2022-08-07T09:26:13;3.40;;;2.20;;
15608;SDS011;28705;45.642;13.758;2022-08-07T09:28:50;4.03;;;2.08;;
15608;SDS011;28705;45.642;13.758;2022-08-07T09:31:23;3.03;;;2.05;;
15608;SDS011;28705;45.642;13.758;2022-08-07T09:34:02;1.95;;;1.50;;
15608;SDS011;28705;45.642;13.758;2022-08-07T09:36:38;2.25;;;2.10;;
15608;SDS011;28705;45.642;13.758;2022-08-07T09:39:21;2.53;;;2.33;;
15608;SDS011;28705;45.642;13.758;2022-08-07T09:45:02;2.70;;;2.50;;
15608;SDS011;28705;45.642;13.758;2022-08-07T09:47:36;2.47;;;2.28;;
15608;SDS011;28705;45.642;13.758;2022-08-07T09:50:13;2.30;;;2.08;;
15608;SDS011;28705;45.642;13.758;2022-08-07T09:52:58;2.13;;;1.90;;
15608;SDS011;28705;45.642;13.758;2022-08-07T09:55:30;1.92;;;1.77;;
15608;SDS011;28705;45.642;13.758;2022-08-07T09:58:19;2.50;;;2.13;;
15608;SDS011;28705;45.642;13.758;2022-08-07T10:01:06;2.47;;;2.28;;
15608;SDS011;28705;45.642;13.758;2022-08-07T10:03:48;2.85;;;2.20;;
15608;SDS011;28705;45.642;13.758;2022-08-07T10:06:30;1.85;;;1.75;;
15608;SDS011;28705;45.642;13.758;2022-08-07T10:09:42;2.38;;;2.15;;
15608;SDS011;28705;45.642;13.758;2022-08-07T10:12:25;2.42;;;2.22;;
15608;SDS011;28705;45.642;13.758;2022-08-07T10:15:26;2.15;;;2.00;;
15608;SDS011;28705;45.642;13.758;2022-08-07T10:18:32;2.40;;;1.77;;
15608;SDS011;28705;45.642;13.758;2022-08-07T10:21:23;1.90;;;1.80;;
15608;SDS011;28705;45.642;13.758;2022-08-07T10:24:00;1.98;;;1.85;;
15608;SDS011;28705;45.642;13.758;2022-08-07T10:26:50;2.30;;;2.08;;
15608;SDS011;28705;45.642;13.758;2022-08-07T10:29:40;2.20;;;2.00;;
15608;SDS011;28705;45.642;13.758;2022-08-07T10:32:50;2.10;;;1.90;;
15608;SDS011;28705;45.642;13.758;2022-08-07T10:35:42;1.85;;;1.75;;
15608;SDS011;28705;45.642;13.758;2022-08-07T10:38:26;2.83;;;1.80;;
15608;SDS011;28705;45.642;13.758;2022-08-07T10:41:05;2.10;;;1.92;;
15608;SDS011;28705;45.642;13.758;2022-08-07T10:43:37;2.42;;;2.00;;
15608;SDS011;28705;45.642;13.758;2022-08-07T10:46:14;2.67;;;1.92;;
15608;SDS011;28705;45.642;13.758;2022-08-07T10:48:48;3.42;;;2.03;;
15608;SDS011;28705;45.642;13.758;2022-08-07T10:51:21;2.45;;;2.25;;
15608;SDS011;28705;45.642;13.758;2022-08-07T10:53:55;2.30;;;2.03;;
15608;SDS011;28705;45.642;13.758;2022-08-07T10:56:42;3.25;;;2.53;;
15608;SDS011;28705;45.642;13.758;2022-08-07T10:59:19;3.22;;;2.20;;
15608;SDS011;28705;45.642;13.758;2022-08-07T11:01:57;3.13;;;2.15;;
15608;SDS011;28705;45.642;13.758;2022-08-07T11:04:34;2.33;;;2.20;;
15608;SDS011;28705;45.642;13.758;2022-08-07T11:07:12;2.47;;;2.28;;
15608;SDS011;28705;45.642;13.758;2022-08-07T11:09:48;2.75;;;2.55;;
15608;SDS011;28705;45.642;13.758;2022-08-07T11:12:20;3.08;;;2.88;;
15608;SDS011;28705;45.642;13.758;2022-08-07T11:14:54;2.67;;;2.47;;
15608;SDS011;28705;45.642;13.758;2022-08-07T11:17:29;3.00;;;2.72;;
15608;SDS011;28705;45.642;13.758;2022-08-07T11:20:05;2.55;;;2.35;;
15608;SDS011;28705;45.642;13.758;2022-08-07T11:22:37;2.78;;;2.58;;
15608;SDS011;28705;45.642;13.758;2022-08-07T11:25:08;2.95;;;2.40;;
15608;SDS011;28705;45.642;13.758;2022-08-07T11:27:42;2.28;;;2.17;;
15608;SDS011;28705;45.642;13.758;2022-08-07T11:30:15;3.50;;;2.60;;
15608;SDS011;28705;45.642;13.758;2022-08-07T11:32:46;2.80;;;2.60;;
15608;SDS011;28705;45.642;13.758;2022-08-07T11:35:19;2.60;;;2.45;;
15608;SDS011;28705;45.642;13.758;2022-08-07T11:37:56;4.60;;;2.80;;
15608;SDS011;28705;45.642;13.758;2022-08-07T11:40:37;3.53;;;3.03;;
15608;SDS011;28705;45.642;13.758;2022-08-07T11:43:11;2.95;;;2.75;;
15608;SDS011;28705;45.642;13.758;2022-08-07T11:45:51;2.67;;;2.47;;
15608;SDS011;28705;45.642;13.758;2022-08-07T11:48:40;3.10;;;2.90;;
15608;SDS011;28705;45.642;13.758;2022-08-07T11:51:24;3.08;;;2.88;;
15608;SDS011;28705;45.642;13.758;2022-08-07T11:57:10;56.50;;;51.42;;
15608;SDS011;28705;45.642;13.758;2022-08-07T12:05:47;9.63;;;8.77;;
15608;SDS011;28705;45.642;13.758;2022-08-07T12:08:25;7.55;;;6.95;;
15608;SDS011;28705;45.642;13.758;2022-08-07T12:10:56;5.60;;;5.20;;
15608;SDS011;28705;45.642;13.758;2022-08-07T12:13:30;41.15;;;37.28;;
15608;SDS011;28705;45.642;13.758;2022-08-07T12:16:02;43.92;;;39.95;;
15608;SDS011;28705;45.642;13.758;2022-08-07T12:18:32;49.38;;;45.00;;
15608;SDS011;28705;45.642;13.758;2022-08-07T12:21:10;25.55;;;23.33;;
15608;SDS011;28705;45.642;13.758;2022-08-07T12:23:45;17.92;;;16.33;;
15608;SDS011;28705;45.642;13.758;2022-08-07T12:26:18;9.77;;;8.90;;
15608;SDS011;28705;45.642;13.758;2022-08-07T12:28:55;6.55;;;5.88;;
15608;SDS011;28705;45.642;13.758;2022-08-07T12:31:30;4.85;;;4.50;;
15608;SDS011;28705;45.642;13.758;2022-08-07T12:34:04;4.63;;;3.85;;
15608;SDS011;28705;45.642;13.758;2022-08-07T12:36:33;3.40;;;3.10;;
15608;SDS011;28705;45.642;13.758;2022-08-07T12:39:02;3.92;;;3.08;;
15608;SDS011;28705;45.642;13.758;2022-08-07T12:41:32;3.05;;;2.75;;
15608;SDS011;28705;45.642;13.758;2022-08-07T12:44:00;3.30;;;3.00;;
15608;SDS011;28705;45.642;13.758;2022-08-07T12:46:34;3.47;;;3.17;;
15608;SDS011;28705;45.642;13.758;2022-08-07T12:49:11;4.10;;;3.05;;
15608;SDS011;28705;45.642;13.758;2022-08-07T12:51:49;4.70;;;3.22;;
15608;SDS011;28705;45.642;13.758;2022-08-07T12:54:28;4.28;;;3.22;;
15608;SDS011;28705;45.642;13.758;2022-08-07T14:15:41;3.30;;;3.00;;
15608;SDS011;28705;45.642;13.758;2022-08-07T14:18:15;3.17;;;2.97;;
15608;SDS011;28705;45.642;13.758;2022-08-07T14:20:46;3.67;;;3.25;;
15608;SDS011;28705;45.642;13.758;2022-08-07T14:23:17;3.70;;;3.42;;
15608;SDS011;28705;45.642;13.758;2022-08-07T14:25:46;3.28;;;3.08;;
15608;SDS011;28705;45.642;13.758;2022-08-07T14:28:23;3.83;;;3.33;;
15608;SDS011;28705;45.642;13.758;2022-08-07T14:30:55;4.15;;;3.78;;
15608;SDS011;28705;45.642;13.758;2022-08-07T14:33:23;4.55;;;3.33;;
15608;SDS011;28705;45.642;13.758;2022-08-07T14:35:53;3.67;;;3.42;;
15608;SDS011;28705;45.642;13.758;2022-08-07T14:38:22;3.45;;;3.15;;
15608;SDS011;28705;45.642;13.758;2022-08-07T14:40:52;3.58;;;3.25;;
15608;SDS011;28705;45.642;13.758;2022-08-07T14:43:20;3.35;;;3.03;;
15608;SDS011;28705;45.642;13.758;2022-08-07T14:45:51;3.97;;;3.58;;
15608;SDS011;28705;45.642;13.758;2022-08-07T14:48:26;3.95;;;3.65;;
15608;SDS011;28705;45.642;13.758;2022-08-07T14:50:57;3.92;;;3.63;;
15608;SDS011;28705;45.642;13.758;2022-08-07T14:53:29;3.85;;;3.45;;
15608;SDS011;28705;45.642;13.758;2022-08-07T14:55:58;3.35;;;2.92;;
15608;SDS011;28705;45.642;13.758;2022-08-07T14:58:30;4.63;;;3.25;;
15608;SDS011;28705;45.642;13.758;2022-08-07T15:01:00;4.18;;;3.30;;
15608;SDS011;28705;45.642;13.758;2022-08-07T15:03:30;3.00;;;2.80;;
15608;SDS011;28705;45.642;13.758;2022-08-07T15:05:59;3.53;;;3.22;;
15608;SDS011;28705;45.642;13.758;2022-08-07T15:08:27;4.25;;;3.13;;
15608;SDS011;28705;45.642;13.758;2022-08-07T15:10:58;3.65;;;3.45;;
15608;SDS011;28705;45.642;13.758;2022-08-07T15:13:27;3.53;;;3.30;;
15608;SDS011;28705;45.642;13.758;2022-08-07T15:15:59;3.83;;;3.35;;
15608;SDS011;28705;45.642;13.758;2022-08-07T15:18:30;3.92;;;3.53;;
15608;SDS011;28705;45.642;13.758;2022-08-07T15:21:01;3.55;;;3.25;;
15608;SDS011;28705;45.642;13.758;2022-08-07T15:23:32;3.45;;;3.15;;
15608;SDS011;28705;45.642;13.758;2022-08-07T15:26:04;3.83;;;3.53;;
15608;SDS011;28705;45.642;13.758;2022-08-07T15:28:34;4.00;;;3.60;;
15608;SDS011;28705;45.642;13.758;2022-08-07T15:31:05;3.80;;;3.50;;
15608;SDS011;28705;45.642;13.758;2022-08-07T15:33:37;3.95;;;3.63;;
15608;SDS011;28705;45.642;13.758;2022-08-07T15:36:07;3.60;;;3.30;;
15608;SDS011;28705;45.642;13.758;2022-08-07T15:38:35;3.47;;;3.15;;
15608;SDS011;28705;45.642;13.758;2022-08-07T15:41:05;3.92;;;3.63;;
15608;SDS011;28705;45.642;13.758;2022-08-07T15:43:38;3.72;;;3.42;;
15608;SDS011;28705;45.642;13.758;2022-08-07T15:46:15;3.55;;;3.25;;
15608;SDS011;28705;45.642;13.758;2022-08-07T15:48:47;4.10;;;3.80;;
15608;SDS011;28705;45.642;13.758;2022-08-07T15:51:15;4.30;;;3.78;;
15608;SDS011;28705;45.642;13.758;2022-08-07T15:53:45;4.00;;;3.70;;
15608;SDS011;28705;45.642;13.758;2022-08-07T15:56:14;3.92;;;3.60;;
15608;SDS011;28705;45.642;13.758;2022-08-07T15:58:46;3.53;;;3.22;;
15608;SDS011;28705;45.642;13.758;2022-08-07T16:01:17;3.80;;;3.50;;
15608;SDS011;28705;45.642;13.758;2022-08-07T16:03:50;3.92;;;3.63;;
15608;SDS011;28705;45.642;13.758;2022-08-07T16:06:23;4.40;;;4.00;;
15608;SDS011;28705;45.642;13.758;2022-08-07T16:08:54;3.75;;;3.40;;
15608;SDS011;28705;45.642;13.758;2022-08-07T16:11:28;3.63;;;3.33;;
15608;SDS011;28705;45.642;13.758;2022-08-07T16:14:06;3.80;;;3.50;;
15608;SDS011;28705;45.642;13.758;2022-08-07T16:19:55;4.20;;;3.90;;
15608;SDS011;28705;45.642;13.758;2022-08-07T16:22:41;4.45;;;4.05;;
15608;SDS011;28705;45.642;13.758;2022-08-07T16:25:31;4.03;;;3.65;;
15608;SDS011;28705;45.642;13.758;2022-08-07T16:28:11;3.97;;;3.67;;
15608;SDS011;28705;45.642;13.758;2022-08-07T16:31:02;4.13;;;3.72;;
15608;SDS011;28705;45.642;13.758;2022-08-07T16:33:42;4.28;;;3.88;;
15608;SDS011;28705;45.642;13.758;2022-08-07T16:36:18;4.00;;;3.70;;